Latest Weather Observations for Dartmoor

IDV60801

Issued at 2:05 pm EST Saturday 30 August 2014 (issued every 30 minutes, with the page automatically refreshed every 10 minutes)

About weather observations | Map of weather stations | Latest weather observations for VIC | Other Formats
Station Details ID: 090194 Name: DARTMOOR Lat: -37.92 Lon: 141.26 Height: 51.0 m
Data from the previous 72 hours. | See also: Recent months at Dartmoor
Date/Time
EST
Temp
°C
App
Temp
°C
Dew
Point
Rel
Hum
%
Delta-T
°C
Wind Press
QNH
hPa
Press
MSL
hPa
Rain
since 9 am
mm
Dir
 
Spd
km/h
Gust
km/h
Spd
kts
Gust
kts
30/02:00pm 20.9 19.6 11.3 54 5.3 NNW 9 15 5 8 1020.9 1021.0 0.2
30/01:30pm 20.0 18.9 10.7 55 5.0 N 7 11 4 6 1021.3 1021.4 0.2
30/01:00pm 19.3 17.8 10.6 57 4.7 NNW 9 13 5 7 1021.7 1021.8 0.2
30/12:30pm 18.9 17.3 11.7 63 4.0 NNW 11 15 6 8 1022.2 1022.3 0.2
30/12:00pm 18.1 17.3 11.7 66 3.5 N 7 13 4 7 1022.7 1022.8 0.2
30/11:30am 16.8 16.1 12.1 74 2.6 N 7 11 4 6 1023.1 1023.2 0.2
30/11:00am 15.0 13.7 11.2 78 2.0 N 9 15 5 8 1023.5 1023.6 0.0
30/10:30am 13.6 13.1 12.0 90 0.9 N 6 7 3 4 1023.6 1023.7 0.0
30/10:00am 12.2 11.7 12.2 100 0.0 NNW 6 7 3 4 1024.1 1024.2 0.0
30/09:30am 11.1 10.3 11.1 100 0.0 N 6 9 3 5 1024.4 1024.5 0.0
30/09:00am 9.2 8.7 9.2 100 0.0 ENE 2 4 1 2 1024.4 1024.5 0.0
30/08:30am 7.9 7.0 7.9 100 0.0 ENE 2 6 1 3 1024.5 1024.6 0.0
30/08:00am 6.4 4.8 6.4 100 0.0 ENE 4 6 2 3 1024.6 1024.7 0.0
30/07:30am 5.2 3.0 5.2 100 0.0 ENE 6 6 3 3 1024.6 1024.7 0.0
30/07:00am 5.6 3.8 5.6 100 0.0 ENE 4 4 2 2 1024.6 1024.7 0.0
30/06:30am 5.9 3.6 5.9 100 0.0 E 7 7 4 4 1024.5 1024.6 0.0
30/06:00am 6.3 4.3 6.3 100 0.0 ENE 6 7 3 4 1024.6 1024.7 0.0
30/05:30am 6.0 4.3 6.0 100 0.0 ENE 4 6 2 3 1024.3 1024.4 0.0
30/05:00am 4.9 2.4 4.9 100 0.0 E 7 9 4 5 1024.3 1024.4 0.0
30/04:30am 5.7 4.7 5.7 100 0.0 CALM 0 0 0 0 1024.3 1024.4 0.0
30/04:00am 6.1 5.2 6.1 100 0.0 CALM 0 0 0 0 1024.5 1024.6 0.0
30/03:30am 6.3 5.5 6.3 100 0.0 CALM 0 0 0 0 1024.6 1024.7 0.0
30/03:00am 6.5 5.7 6.5 100 0.0 CALM 0 0 0 0 1024.9 1025.0 0.0
30/02:30am 7.9 7.4 7.9 100 0.0 CALM 0 0 0 0 1025.4 1025.5 0.0
30/02:00am 7.7 6.4 7.7 100 0.0 E 4 4 2 2 1025.5 1025.6 0.0
30/01:30am 8.4 7.3 8.4 100 0.0 E 4 4 2 2 1025.8 1025.9 0.0
30/01:00am 9.3 8.0 9.3 100 0.0 E 6 7 3 4 1025.9 1026.0 0.0
30/12:30am 8.9 7.5 8.9 100 0.0 E 6 7 3 4 1026.0 1026.1 0.0
30/12:00am 9.5 8.1 9.5 100 0.0 E 7 9 4 5 1026.2 1026.3 0.0
 
Date/Time
EST
Temp
°C
App
Temp
°C
Dew
Point
Rel
Hum
%
Delta-T
°C
Wind Press
QNH
hPa
Press
MSL
hPa
Rain
since 9 am
mm
Dir
 
Spd
km/h
Gust
km/h
Spd
kts
Gust
kts
29/11:30pm 9.8 9.0 9.8 100 0.0 ENE 4 7 2 4 1026.2 1026.3 0.0
29/11:00pm 9.9 9.2 9.9 100 0.0 ENE 4 6 2 3 1026.4 1026.5 0.0
29/10:30pm 10.1 9.0 10.1 100 0.0 E 6 7 3 4 1026.6 1026.7 0.0
29/10:00pm 10.6 9.7 10.6 100 0.0 ESE 6 7 3 4 1026.8 1026.9 0.0
29/09:30pm 10.8 9.9 10.8 100 0.0 ESE 6 9 3 5 1026.9 1027.0 0.0
29/09:00pm 11.1 9.8 11.1 100 0.0 SE 9 9 5 5 1026.8 1026.9 0.0
29/08:30pm 11.3 10.3 11.1 99 0.1 SE 7 9 4 5 1026.9 1027.0 0.0
29/08:00pm 11.8 11.0 11.0 95 0.4 SE 6 7 3 4 1026.8 1026.9 0.0
29/07:30pm 11.7 10.5 10.3 91 0.7 S 7 11 4 6 1026.7 1026.8 0.0
29/07:00pm 12.9 10.9 10.1 83 1.4 SSW 11 13 6 7 1026.7 1026.8 0.0
29/06:30pm 14.1 11.5 9.5 74 2.4 SSW 13 15 7 8 1026.5 1026.6 0.0
29/06:00pm 15.2 13.6 11.6 79 1.9 SSW 11 15 6 8 1026.3 1026.4 0.0
29/05:30pm 17.0 15.3 12.3 74 2.6 SSW 13 15 7 8 1026.1 1026.2 0.0
29/05:00pm 18.5 17.3 12.7 69 3.2 SSW 11 15 6 8 1026.2 1026.3 0.0
29/04:30pm 19.6 18.4 12.8 65 3.8 SSW 11 15 6 8 1026.1 1026.2 0.0
29/04:00pm 20.5 20.0 10.9 54 5.2 SW 4 11 2 6 1026.1 1026.2 0.0
29/03:30pm 20.7 20.4 11.3 55 5.2 SW 4 9 2 5 1026.2 1026.3 0.0
29/03:00pm 20.6 19.5 10.1 51 5.6 SSW 6 13 3 7 1026.5 1026.6 0.0
29/02:30pm 20.4 19.7 9.9 51 5.6 W 4 9 2 5 1026.7 1026.8 0.0
29/02:00pm 20.0 19.4 10.4 54 5.2 SSW 4 9 2 5 1026.9 1027.0 0.0
29/01:30pm 19.5 18.8 10.2 55 5.0 S 4 6 2 3 1027.2 1027.3 0.0
29/01:00pm 19.3 19.0 11.3 60 4.4 W 4 7 2 4 1027.6 1027.7 0.0
29/12:30pm 19.1 19.6 11.7 62 4.1 CALM 0 0 0 0 1028.1 1028.2 0.0
29/12:00pm 18.0 18.4 11.1 64 3.7 CALM 0 0 0 0 1028.5 1028.5 0.0
29/11:30am 17.6 17.9 12.1 70 3.0 NNW 2 4 1 2 1028.8 1028.8 0.0
29/11:00am 16.1 16.4 12.3 78 2.1 NW 2 6 1 3 1029.1 1029.1 0.0
29/10:30am 15.1 16.8 15.1 100 0.0 CALM 0 0 0 0 1029.3 1029.3 0.0
29/10:00am 11.8 12.4 11.8 100 0.0 CALM 0 0 0 0 1029.5 1029.5 0.0
29/09:30am 10.0 10.1 10.0 100 0.0 CALM 0 0 0 0 1029.6 1029.7 0.0
29/09:00am 8.3 7.9 8.3 100 0.0 CALM 0 0 0 0 1029.7 1029.8 0.0
29/08:30am 6.4 5.6 6.4 100 0.0 CALM 0 0 0 0 1029.5 1029.5 0.0
29/08:00am 3.8 2.4 3.8 100 0.0 CALM 0 0 0 0 1029.3 1029.3 0.0
29/07:30am 2.4 0.8 2.4 100 0.0 CALM 0 0 0 0 1029.0 1029.0 0.0
29/07:00am 1.9 0.2 1.9 100 0.0 CALM 0 0 0 0 1028.6 1028.6 0.0
29/06:30am 2.2 0.6 2.2 100 0.0 CALM 0 0 0 0 1028.3 1028.3 0.0
29/06:00am 2.0 0.3 2.0 100 0.0 CALM 0 0 0 0 1028.1 1028.2 0.0
29/05:30am 2.1 0.4 2.1 100 0.0 CALM 0 0 0 0 1027.8 1027.9 0.0
29/05:00am 2.8 1.3 2.8 100 0.0 CALM 0 0 0 0 1027.7 1027.8 0.0
29/04:30am 2.9 1.4 2.9 100 0.0 CALM 0 0 0 0 1027.8 1027.9 0.0
29/04:00am 3.0 1.5 3.0 100 0.0 CALM 0 0 0 0 1027.8 1027.9 0.0
29/03:30am 3.3 1.9 3.3 100 0.0 CALM 0 0 0 0 1027.8 1027.9 0.0
29/03:00am 3.7 2.3 3.7 100 0.0 CALM 0 0 0 0 1027.9 1028.0 0.0
29/02:30am 4.0 2.7 4.0 100 0.0 CALM 0 0 0 0 1028.4 1028.4 0.0
29/02:00am 4.0 2.7 4.0 100 0.0 CALM 0 0 0 0 1028.8 1028.8 0.0
29/01:30am 4.2 2.9 4.2 100 0.0 CALM 0 0 0 0 1028.8 1028.8 0.0
29/01:00am 4.7 3.5 4.7 100 0.0 CALM 0 0 0 0 1028.8 1028.8 0.0
29/12:30am 5.0 3.9 5.0 100 0.0 CALM 0 0 0 0 1029.0 1029.0 0.0
29/12:00am 5.3 4.2 5.3 100 0.0 CALM 0 0 0 0 1029.1 1029.1 0.0
 
Date/Time
EST
Temp
°C
App
Temp
°C
Dew
Point
Rel
Hum
%
Delta-T
°C
Wind Press
QNH
hPa
Press
MSL
hPa
Rain
since 9 am
mm
Dir
 
Spd
km/h
Gust
km/h
Spd
kts
Gust
kts
28/11:30pm 6.3 5.5 6.3 100 0.0 CALM 0 0 0 0 1029.0 1029.0 0.0
28/11:00pm 6.6 5.8 6.6 100 0.0 CALM 0 0 0 0 1028.9 1028.9 0.0
28/10:30pm 6.9 6.2 6.9 100 0.0 CALM 0 0 0 0 1029.0 1029.0 0.0
28/10:00pm 7.3 6.7 7.3 100 0.0 CALM 0 0 0 0 1029.0 1029.0 0.0
28/09:30pm 7.8 7.3 7.8 100 0.0 CALM 0 0 0 0 1028.9 1028.9 0.0
28/09:00pm 8.3 7.9 8.3 100 0.0 CALM 0 0 0 0 1028.9 1028.9 0.0
28/08:30pm 9.1 8.9 9.1 100 0.0 CALM 0 0 0 0 1028.9 1028.9 0.0
28/08:00pm 9.7 9.7 9.7 100 0.0 CALM 0 0 0 0 1028.5 1028.5 0.0
28/07:30pm 10.7 10.7 9.9 95 0.4 CALM 0 0 0 0 1028.5 1028.5 0.0
28/07:00pm 11.9 11.3 10.3 90 0.8 S 4 6 2 3 1028.3 1028.3 0.0
28/06:30pm 12.4 11.5 10.6 89 0.9 SSW 6 6 3 3 1028.1 1028.2 0.0
28/06:00pm 13.8 12.6 10.4 80 1.8 SSW 7 9 4 5 1027.7 1027.8 0.0
28/05:30pm 15.3 14.3 10.9 75 2.3 SSW 7 11 4 6 1027.7 1027.8 0.0
28/05:00pm 16.5 15.2 11.2 71 2.8 SSW 9 13 5 7 1027.5 1027.6 0.0
28/04:30pm 17.1 16.1 12.4 74 2.6 SSW 9 11 5 6 1027.2 1027.3 0.0
28/04:00pm 17.3 15.8 12.0 71 2.9 SSW 11 13 6 7 1027.2 1027.3 0.0
28/03:30pm 17.7 16.0 12.4 71 2.9 SSW 13 17 7 9 1027.1 1027.2 0.0
28/03:00pm 17.9 15.9 12.8 72 2.8 SSW 15 19 8 10 1027.1 1027.2 0.0
28/02:30pm 19.3 18.5 11.1 59 4.5 WSW 6 11 3 6 1027.1 1027.2 0.0
28/02:00pm 18.9 18.0 10.5 58 4.5 W 6 11 3 6 1027.1 1027.2 0.0
28/01:30pm 18.8 17.9 11.4 62 4.1 WNW 7 15 4 8 1027.3 1027.4 0.0
28/01:00pm 18.2 16.4 11.0 63 3.9 W 11 15 6 8 1027.5 1027.6 0.0
28/12:30pm 18.1 17.5 12.3 69 3.2 WNW 7 13 4 7 1028.0 1028.1 0.0
28/12:00pm 17.1 16.6 12.0 72 2.8 WNW 6 11 3 6 1028.5 1028.5 0.0
28/11:30am 16.2 16.0 12.9 81 1.8 W 6 9 3 5 1028.7 1028.7 0.0
28/11:00am 15.8 16.6 14.8 94 0.6 NNW 4 7 2 4 1029.0 1029.0 0.0
28/10:30am 13.6 14.0 13.6 100 0.0 N 4 7 2 4 1029.1 1029.1 0.0
28/10:00am 11.7 12.2 11.7 100 0.0 CALM 0 0 0 0 1029.4 1029.4 0.0
28/09:30am 9.6 9.5 9.6 100 0.0 CALM 0 0 0 0 1029.4 1029.4 0.0
28/09:00am 7.8 7.3 7.8 100 0.0 CALM 0 0 0 0 1029.4 1029.4 0.0
28/08:30am 5.7 4.7 5.7 100 0.0 CALM 0 0 0 0 1029.3 1029.3 0.0
28/08:00am 3.0 1.5 3.0 100 0.0 CALM 0 0 0 0 1029.1 1029.1 0.0
28/07:30am 2.2 0.6 2.2 100 0.0 CALM 0 0 0 0 1028.8 1028.8 0.0
28/07:00am 2.2 0.6 2.2 100 0.0 CALM 0 0 0 0 1028.5 1028.5 0.0
28/06:30am 2.7 1.1 2.7 100 0.0 CALM 0 0 0 0 1028.1 1028.2 0.0
28/06:00am 2.4 0.8 2.4 100 0.0 CALM 0 0 0 0 1027.9 1028.0 0.0
28/05:30am 2.8 1.3 2.8 100 0.0 CALM 0 0 0 0 1027.7 1027.8 0.0
28/05:00am 2.9 1.4 2.9 100 0.0 CALM 0 0 0 0 1027.6 1027.7 0.0
28/04:30am 3.0 1.5 3.0 100 0.0 CALM 0 0 0 0 1027.7 1027.8 0.0
28/04:00am 3.6 2.2 3.6 100 0.0 CALM 0 0 0 0 1027.6 1027.7 0.0
28/03:30am 4.0 2.7 4.0 100 0.0 CALM 0 0 0 0 1027.6 1027.7 0.0
28/03:00am 4.4 3.2 4.4 100 0.0 CALM 0 0 0 0 1027.7 1027.8 0.0
28/02:30am 4.5 3.3 4.5 100 0.0 CALM 0 0 0 0 1028.0 1028.1 0.0
28/02:00am 5.0 3.9 5.0 100 0.0 CALM 0 0 0 0 1028.1 1028.2 0.0
28/01:30am 4.9 3.8 4.9 100 0.0 CALM 0 0 0 0 1028.5 1028.5 0.0
28/01:00am 5.1 4.0 5.1 100 0.0 CALM 0 0 0 0 1028.8 1028.8 0.0
28/12:30am 5.7 4.7 5.7 100 0.0 CALM 0 0 0 0 1028.9 1028.9 0.0
28/12:00am 6.0 5.1 6.0 100 0.0 CALM 0 0 0 0 1028.9 1028.9 0.0
 
Date/Time
EST
Temp
°C
App
Temp
°C
Dew
Point
Rel
Hum
%
Delta-T
°C
Wind Press
QNH
hPa
Press
MSL
hPa
Rain
since 9 am
mm
Dir
 
Spd
km/h
Gust
km/h
Spd
kts
Gust
kts
27/11:30pm 6.1 5.2 6.1 100 0.0 CALM 0 0 0 0 1029.0 1029.0 0.0
27/11:00pm 6.7 5.9 6.7 100 0.0 CALM 0 0 0 0 1029.0 1029.0 0.0
27/10:30pm 7.2 6.6 7.2 100 0.0 CALM 0 0 0 0 1028.9 1028.9 0.0
27/10:00pm 7.7 7.2 7.7 100 0.0 CALM 0 0 0 0 1028.8 1028.8 0.0
27/09:30pm 8.1 7.7 8.1 100 0.0 CALM 0 0 0 0 1028.8 1028.8 0.0
27/09:00pm 8.6 8.3 8.6 100 0.0 CALM 0 0 0 0 1028.7 1028.7 0.0
27/08:30pm 9.4 9.3 9.4 100 0.0 CALM 0 0 0 0 1028.7 1028.7 0.0
27/08:00pm 9.9 9.9 9.9 100 0.0 CALM 0 0 0 0 1028.5 1028.5 0.0
27/07:30pm 10.5 10.6 10.0 97 0.3 CALM 0 2 0 1 1028.3 1028.3 0.0
27/07:00pm 11.7 11.2 10.6 93 0.6 S 4 6 2 3 1027.9 1028.0 0.0
27/06:30pm 12.0 10.7 9.9 87 1.1 SSW 7 9 4 5 1027.6 1027.7 0.0
27/06:00pm 13.4 11.6 9.6 78 1.9 S 9 13 5 7 1027.4 1027.5 0.0
27/05:30pm 14.9 12.9 10.3 74 2.4 SSW 11 17 6 9 1027.1 1027.2 0.0
27/05:00pm 16.0 14.1 10.5 70 2.9 SSW 11 15 6 8 1026.9 1027.0 0.0
27/04:30pm 16.4 14.2 10.7 69 3.0 SSW 13 19 7 10 1026.7 1026.8 0.0
27/04:00pm 18.4 17.9 10.8 61 4.1 W 4 7 2 4 1026.5 1026.6 0.0
27/03:30pm 18.3 17.7 10.4 60 4.2 W 4 7 2 4 1026.4 1026.5 0.0
27/03:00pm 19.1 18.2 10.6 58 4.6 W 6 13 3 7 1026.4 1026.5 0.0
27/02:30pm 18.6 17.3 9.9 57 4.6 WNW 7 13 4 7 1026.5 1026.6 0.0

Other Formats:

Comma delimited format used in spreadsheet applications
http://www.bom.gov.au/fwo/IDV60801/IDV60801.95822.axf

JavaScript Object Notation format (JSON) in row-major order
http://www.bom.gov.au/fwo/IDV60801/IDV60801.95822.json